sensor_id;sensor_type;location;lat;lon;timestamp;P1;durP1;ratioP1;P2;durP2;ratioP2
55290;SDS011;41155;39.768;2.712;2024-01-30T00:01:27;75.97;;;52.75;;
55290;SDS011;41155;39.768;2.712;2024-01-30T00:03:53;67.10;;;49.83;;
55290;SDS011;41155;39.768;2.712;2024-01-30T00:06:19;73.88;;;50.50;;
55290;SDS011;41155;39.768;2.712;2024-01-30T00:08:46;83.57;;;54.05;;
55290;SDS011;41155;39.768;2.712;2024-01-30T00:11:14;77.35;;;56.25;;
55290;SDS011;41155;39.768;2.712;2024-01-30T00:13:39;77.65;;;60.45;;
55290;SDS011;41155;39.768;2.712;2024-01-30T00:16:05;95.75;;;59.88;;
55290;SDS011;41155;39.768;2.712;2024-01-30T00:18:31;81.38;;;54.80;;
55290;SDS011;41155;39.768;2.712;2024-01-30T00:20:57;85.68;;;58.55;;
55290;SDS011;41155;39.768;2.712;2024-01-30T00:23:22;70.80;;;53.75;;
55290;SDS011;41155;39.768;2.712;2024-01-30T00:25:48;71.05;;;49.60;;
55290;SDS011;41155;39.768;2.712;2024-01-30T00:28:13;72.18;;;51.25;;
55290;SDS011;41155;39.768;2.712;2024-01-30T00:30:39;67.72;;;51.13;;
55290;SDS011;41155;39.768;2.712;2024-01-30T00:33:04;80.93;;;52.50;;
55290;SDS011;41155;39.768;2.712;2024-01-30T00:35:30;71.13;;;47.70;;
55290;SDS011;41155;39.768;2.712;2024-01-30T00:37:55;58.10;;;43.17;;
55290;SDS011;41155;39.768;2.712;2024-01-30T00:40:21;62.08;;;39.22;;
55290;SDS011;41155;39.768;2.712;2024-01-30T00:42:46;64.75;;;47.05;;
55290;SDS011;41155;39.768;2.712;2024-01-30T00:45:14;55.90;;;38.53;;
55290;SDS011;41155;39.768;2.712;2024-01-30T00:47:41;62.58;;;41.38;;
55290;SDS011;41155;39.768;2.712;2024-01-30T00:50:07;55.47;;;38.60;;
55290;SDS011;41155;39.768;2.712;2024-01-30T00:52:33;58.97;;;38.42;;
55290;SDS011;41155;39.768;2.712;2024-01-30T00:54:59;51.20;;;32.30;;
55290;SDS011;41155;39.768;2.712;2024-01-30T00:57:28;53.38;;;35.60;;
55290;SDS011;41155;39.768;2.712;2024-01-30T00:59:53;65.05;;;45.38;;
55290;SDS011;41155;39.768;2.712;2024-01-30T01:02:19;79.60;;;54.30;;
55290;SDS011;41155;39.768;2.712;2024-01-30T01:04:45;88.30;;;62.22;;
55290;SDS011;41155;39.768;2.712;2024-01-30T01:07:11;74.90;;;53.13;;
55290;SDS011;41155;39.768;2.712;2024-01-30T01:09:36;63.45;;;42.58;;
55290;SDS011;41155;39.768;2.712;2024-01-30T01:12:02;49.75;;;36.50;;
55290;SDS011;41155;39.768;2.712;2024-01-30T01:14:28;63.13;;;39.47;;
55290;SDS011;41155;39.768;2.712;2024-01-30T01:16:54;46.15;;;36.70;;
55290;SDS011;41155;39.768;2.712;2024-01-30T01:19:20;57.55;;;36.67;;
55290;SDS011;41155;39.768;2.712;2024-01-30T01:21:45;47.67;;;36.95;;
55290;SDS011;41155;39.768;2.712;2024-01-30T01:24:11;56.42;;;39.08;;
55290;SDS011;41155;39.768;2.712;2024-01-30T01:26:36;66.57;;;45.75;;
55290;SDS011;41155;39.768;2.712;2024-01-30T01:29:02;57.95;;;35.90;;
55290;SDS011;41155;39.768;2.712;2024-01-30T01:31:35;46.00;;;31.65;;
55290;SDS011;41155;39.768;2.712;2024-01-30T01:34:05;51.63;;;30.75;;
55290;SDS011;41155;39.768;2.712;2024-01-30T01:36:31;40.70;;;29.48;;
55290;SDS011;41155;39.768;2.712;2024-01-30T01:38:56;49.88;;;31.42;;
55290;SDS011;41155;39.768;2.712;2024-01-30T01:41:22;38.17;;;27.55;;
55290;SDS011;41155;39.768;2.712;2024-01-30T01:43:47;47.28;;;28.13;;
55290;SDS011;41155;39.768;2.712;2024-01-30T01:46:13;40.97;;;26.58;;
55290;SDS011;41155;39.768;2.712;2024-01-30T01:48:38;34.10;;;24.40;;
55290;SDS011;41155;39.768;2.712;2024-01-30T01:51:05;40.08;;;25.35;;
55290;SDS011;41155;39.768;2.712;2024-01-30T01:53:30;40.58;;;25.50;;
55290;SDS011;41155;39.768;2.712;2024-01-30T01:55:56;39.53;;;25.67;;
55290;SDS011;41155;39.768;2.712;2024-01-30T01:58:22;36.47;;;25.90;;
55290;SDS011;41155;39.768;2.712;2024-01-30T02:00:53;34.00;;;24.63;;
55290;SDS011;41155;39.768;2.712;2024-01-30T02:03:19;35.90;;;23.35;;
55290;SDS011;41155;39.768;2.712;2024-01-30T02:05:49;38.58;;;25.45;;
55290;SDS011;41155;39.768;2.712;2024-01-30T02:08:18;36.22;;;24.25;;
55290;SDS011;41155;39.768;2.712;2024-01-30T02:10:44;38.45;;;25.75;;
55290;SDS011;41155;39.768;2.712;2024-01-30T02:13:10;44.72;;;28.80;;
55290;SDS011;41155;39.768;2.712;2024-01-30T02:15:36;55.17;;;36.25;;
55290;SDS011;41155;39.768;2.712;2024-01-30T02:18:01;57.92;;;33.78;;
55290;SDS011;41155;39.768;2.712;2024-01-30T02:20:27;44.53;;;28.23;;
55290;SDS011;41155;39.768;2.712;2024-01-30T02:22:55;37.72;;;27.95;;
55290;SDS011;41155;39.768;2.712;2024-01-30T02:25:32;33.08;;;24.38;;
55290;SDS011;41155;39.768;2.712;2024-01-30T02:27:59;34.60;;;24.17;;
55290;SDS011;41155;39.768;2.712;2024-01-30T02:30:24;35.67;;;24.02;;
55290;SDS011;41155;39.768;2.712;2024-01-30T02:32:50;38.28;;;25.98;;
55290;SDS011;41155;39.768;2.712;2024-01-30T02:35:15;30.95;;;21.42;;
55290;SDS011;41155;39.768;2.712;2024-01-30T02:37:41;37.65;;;21.42;;
55290;SDS011;41155;39.768;2.712;2024-01-30T02:40:06;30.00;;;21.67;;
55290;SDS011;41155;39.768;2.712;2024-01-30T02:42:32;32.15;;;23.00;;
55290;SDS011;41155;39.768;2.712;2024-01-30T02:44:57;30.30;;;21.42;;
55290;SDS011;41155;39.768;2.712;2024-01-30T02:47:23;31.02;;;21.33;;
55290;SDS011;41155;39.768;2.712;2024-01-30T02:49:48;34.55;;;21.42;;
55290;SDS011;41155;39.768;2.712;2024-01-30T02:52:14;31.10;;;18.55;;
55290;SDS011;41155;39.768;2.712;2024-01-30T02:54:39;33.30;;;20.98;;
55290;SDS011;41155;39.768;2.712;2024-01-30T02:57:05;33.13;;;20.13;;
55290;SDS011;41155;39.768;2.712;2024-01-30T02:59:30;27.70;;;19.23;;
55290;SDS011;41155;39.768;2.712;2024-01-30T03:01:58;34.22;;;22.20;;
55290;SDS011;41155;39.768;2.712;2024-01-30T03:04:24;28.80;;;21.15;;
55290;SDS011;41155;39.768;2.712;2024-01-30T03:06:49;31.63;;;19.15;;
55290;SDS011;41155;39.768;2.712;2024-01-30T03:09:16;46.88;;;21.88;;
55290;SDS011;41155;39.768;2.712;2024-01-30T03:11:42;31.98;;;21.67;;
55290;SDS011;41155;39.768;2.712;2024-01-30T03:14:08;30.48;;;21.42;;
55290;SDS011;41155;39.768;2.712;2024-01-30T03:16:36;35.83;;;20.98;;
55290;SDS011;41155;39.768;2.712;2024-01-30T03:19:03;30.90;;;21.30;;
55290;SDS011;41155;39.768;2.712;2024-01-30T03:21:30;34.95;;;20.60;;
55290;SDS011;41155;39.768;2.712;2024-01-30T03:23:55;30.73;;;20.55;;
55290;SDS011;41155;39.768;2.712;2024-01-30T03:26:21;45.15;;;21.10;;
55290;SDS011;41155;39.768;2.712;2024-01-30T03:28:47;32.05;;;21.08;;
55290;SDS011;41155;39.768;2.712;2024-01-30T03:31:13;34.50;;;19.90;;
55290;SDS011;41155;39.768;2.712;2024-01-30T03:33:39;35.78;;;20.63;;
55290;SDS011;41155;39.768;2.712;2024-01-30T03:36:05;33.55;;;20.73;;
55290;SDS011;41155;39.768;2.712;2024-01-30T03:38:31;30.65;;;18.75;;
55290;SDS011;41155;39.768;2.712;2024-01-30T03:40:58;27.40;;;19.38;;
55290;SDS011;41155;39.768;2.712;2024-01-30T03:43:24;26.60;;;18.75;;
55290;SDS011;41155;39.768;2.712;2024-01-30T03:45:49;29.85;;;16.70;;
55290;SDS011;41155;39.768;2.712;2024-01-30T03:48:15;25.63;;;17.55;;
55290;SDS011;41155;39.768;2.712;2024-01-30T03:50:40;29.13;;;17.63;;
55290;SDS011;41155;39.768;2.712;2024-01-30T03:53:06;25.13;;;15.68;;
55290;SDS011;41155;39.768;2.712;2024-01-30T03:55:31;24.58;;;15.40;;
55290;SDS011;41155;39.768;2.712;2024-01-30T03:57:57;26.23;;;17.08;;
55290;SDS011;41155;39.768;2.712;2024-01-30T04:00:23;21.17;;;17.15;;
55290;SDS011;41155;39.768;2.712;2024-01-30T04:02:48;23.17;;;16.95;;
55290;SDS011;41155;39.768;2.712;2024-01-30T04:05:16;21.60;;;16.88;;
55290;SDS011;41155;39.768;2.712;2024-01-30T04:07:41;23.33;;;16.98;;
55290;SDS011;41155;39.768;2.712;2024-01-30T04:10:08;22.73;;;18.17;;
55290;SDS011;41155;39.768;2.712;2024-01-30T04:12:34;29.55;;;21.90;;
55290;SDS011;41155;39.768;2.712;2024-01-30T04:15:00;23.95;;;18.42;;
55290;SDS011;41155;39.768;2.712;2024-01-30T04:17:26;28.80;;;18.55;;
55290;SDS011;41155;39.768;2.712;2024-01-30T04:19:54;26.48;;;19.75;;
55290;SDS011;41155;39.768;2.712;2024-01-30T04:22:19;28.25;;;18.63;;
55290;SDS011;41155;39.768;2.712;2024-01-30T04:24:45;22.90;;;17.55;;
55290;SDS011;41155;39.768;2.712;2024-01-30T04:27:10;26.77;;;15.82;;
55290;SDS011;41155;39.768;2.712;2024-01-30T04:29:36;20.92;;;15.38;;
55290;SDS011;41155;39.768;2.712;2024-01-30T04:32:01;25.92;;;16.35;;
55290;SDS011;41155;39.768;2.712;2024-01-30T04:34:27;26.20;;;16.17;;
55290;SDS011;41155;39.768;2.712;2024-01-30T04:36:52;25.33;;;16.83;;
55290;SDS011;41155;39.768;2.712;2024-01-30T04:39:18;21.98;;;16.02;;
55290;SDS011;41155;39.768;2.712;2024-01-30T04:41:43;25.88;;;17.23;;
55290;SDS011;41155;39.768;2.712;2024-01-30T04:44:09;29.35;;;19.48;;
55290;SDS011;41155;39.768;2.712;2024-01-30T04:46:34;23.10;;;15.85;;
55290;SDS011;41155;39.768;2.712;2024-01-30T04:49:00;29.80;;;16.15;;
55290;SDS011;41155;39.768;2.712;2024-01-30T04:51:25;23.60;;;17.35;;
55290;SDS011;41155;39.768;2.712;2024-01-30T04:53:51;23.70;;;17.35;;
55290;SDS011;41155;39.768;2.712;2024-01-30T04:56:16;32.88;;;17.73;;
55290;SDS011;41155;39.768;2.712;2024-01-30T04:58:42;24.58;;;15.95;;
55290;SDS011;41155;39.768;2.712;2024-01-30T05:01:07;25.85;;;17.05;;
55290;SDS011;41155;39.768;2.712;2024-01-30T05:03:33;25.35;;;16.90;;
55290;SDS011;41155;39.768;2.712;2024-01-30T05:06:00;30.65;;;17.08;;
55290;SDS011;41155;39.768;2.712;2024-01-30T05:08:25;24.88;;;16.08;;
55290;SDS011;41155;39.768;2.712;2024-01-30T05:10:51;23.58;;;16.88;;
55290;SDS011;41155;39.768;2.712;2024-01-30T05:13:16;27.02;;;17.00;;
55290;SDS011;41155;39.768;2.712;2024-01-30T05:15:42;25.90;;;15.93;;
55290;SDS011;41155;39.768;2.712;2024-01-30T05:18:07;28.30;;;16.77;;
55290;SDS011;41155;39.768;2.712;2024-01-30T05:20:33;17.73;;;15.52;;
55290;SDS011;41155;39.768;2.712;2024-01-30T05:22:58;19.98;;;16.42;;
55290;SDS011;41155;39.768;2.712;2024-01-30T05:25:24;21.00;;;15.85;;
55290;SDS011;41155;39.768;2.712;2024-01-30T05:27:49;24.25;;;15.77;;
55290;SDS011;41155;39.768;2.712;2024-01-30T05:30:15;31.15;;;15.60;;
55290;SDS011;41155;39.768;2.712;2024-01-30T05:32:40;26.08;;;17.35;;
55290;SDS011;41155;39.768;2.712;2024-01-30T05:35:06;24.38;;;14.82;;
55290;SDS011;41155;39.768;2.712;2024-01-30T05:37:33;24.73;;;15.10;;
55290;SDS011;41155;39.768;2.712;2024-01-30T05:39:58;18.95;;;14.82;;
55290;SDS011;41155;39.768;2.712;2024-01-30T05:42:24;24.73;;;13.90;;
55290;SDS011;41155;39.768;2.712;2024-01-30T05:44:50;25.88;;;14.45;;
55290;SDS011;41155;39.768;2.712;2024-01-30T05:47:19;24.52;;;15.02;;
55290;SDS011;41155;39.768;2.712;2024-01-30T05:49:53;24.23;;;14.98;;
55290;SDS011;41155;39.768;2.712;2024-01-30T05:52:19;24.48;;;14.13;;
55290;SDS011;41155;39.768;2.712;2024-01-30T05:54:51;21.98;;;14.60;;
55290;SDS011;41155;39.768;2.712;2024-01-30T05:57:19;23.48;;;14.68;;
55290;SDS011;41155;39.768;2.712;2024-01-30T05:59:45;21.73;;;14.57;;
55290;SDS011;41155;39.768;2.712;2024-01-30T06:02:21;21.67;;;14.93;;
55290;SDS011;41155;39.768;2.712;2024-01-30T06:04:47;42.38;;;14.77;;
55290;SDS011;41155;39.768;2.712;2024-01-30T06:07:13;24.77;;;15.25;;
55290;SDS011;41155;39.768;2.712;2024-01-30T06:09:38;26.55;;;15.95;;
55290;SDS011;41155;39.768;2.712;2024-01-30T06:12:05;26.85;;;16.00;;
55290;SDS011;41155;39.768;2.712;2024-01-30T06:14:30;39.00;;;18.00;;
55290;SDS011;41155;39.768;2.712;2024-01-30T06:16:56;24.27;;;14.98;;
55290;SDS011;41155;39.768;2.712;2024-01-30T06:19:22;27.02;;;15.45;;
55290;SDS011;41155;39.768;2.712;2024-01-30T06:21:48;23.42;;;15.98;;
55290;SDS011;41155;39.768;2.712;2024-01-30T06:24:13;35.58;;;15.23;;
55290;SDS011;41155;39.768;2.712;2024-01-30T06:26:39;30.98;;;15.10;;
55290;SDS011;41155;39.768;2.712;2024-01-30T06:29:04;21.85;;;15.63;;
55290;SDS011;41155;39.768;2.712;2024-01-30T06:31:30;29.27;;;15.85;;
55290;SDS011;41155;39.768;2.712;2024-01-30T06:33:56;25.55;;;16.83;;
55290;SDS011;41155;39.768;2.712;2024-01-30T06:36:21;28.35;;;16.35;;
55290;SDS011;41155;39.768;2.712;2024-01-30T06:38:47;32.53;;;18.05;;
55290;SDS011;41155;39.768;2.712;2024-01-30T06:41:12;24.08;;;17.58;;
55290;SDS011;41155;39.768;2.712;2024-01-30T06:43:38;29.17;;;18.25;;
55290;SDS011;41155;39.768;2.712;2024-01-30T06:46:03;29.17;;;19.80;;
55290;SDS011;41155;39.768;2.712;2024-01-30T06:48:29;38.63;;;21.58;;
55290;SDS011;41155;39.768;2.712;2024-01-30T06:50:54;35.70;;;20.27;;
55290;SDS011;41155;39.768;2.712;2024-01-30T06:53:23;31.58;;;19.80;;
55290;SDS011;41155;39.768;2.712;2024-01-30T06:55:48;28.25;;;19.77;;
55290;SDS011;41155;39.768;2.712;2024-01-30T06:58:14;38.20;;;18.83;;
55290;SDS011;41155;39.768;2.712;2024-01-30T07:00:39;32.40;;;19.10;;
55290;SDS011;41155;39.768;2.712;2024-01-30T07:03:05;31.65;;;17.65;;
55290;SDS011;41155;39.768;2.712;2024-01-30T07:05:31;35.30;;;18.27;;
55290;SDS011;41155;39.768;2.712;2024-01-30T07:07:57;33.42;;;19.25;;
55290;SDS011;41155;39.768;2.712;2024-01-30T07:10:22;35.55;;;19.42;;
55290;SDS011;41155;39.768;2.712;2024-01-30T07:12:48;35.58;;;21.63;;
55290;SDS011;41155;39.768;2.712;2024-01-30T07:15:14;33.33;;;19.80;;
55290;SDS011;41155;39.768;2.712;2024-01-30T07:17:42;34.92;;;21.60;;
55290;SDS011;41155;39.768;2.712;2024-01-30T07:20:07;29.95;;;21.98;;
55290;SDS011;41155;39.768;2.712;2024-01-30T07:22:34;35.05;;;20.27;;
55290;SDS011;41155;39.768;2.712;2024-01-30T07:25:00;45.05;;;23.40;;
55290;SDS011;41155;39.768;2.712;2024-01-30T07:27:25;32.67;;;22.83;;
55290;SDS011;41155;39.768;2.712;2024-01-30T07:29:51;39.67;;;22.83;;
55290;SDS011;41155;39.768;2.712;2024-01-30T07:32:16;32.20;;;22.17;;
55290;SDS011;41155;39.768;2.712;2024-01-30T07:34:43;57.25;;;28.13;;
55290;SDS011;41155;39.768;2.712;2024-01-30T07:37:09;39.72;;;23.92;;
55290;SDS011;41155;39.768;2.712;2024-01-30T07:39:35;49.60;;;25.98;;
55290;SDS011;41155;39.768;2.712;2024-01-30T07:42:02;38.85;;;24.70;;
55290;SDS011;41155;39.768;2.712;2024-01-30T07:44:27;37.42;;;23.58;;
55290;SDS011;41155;39.768;2.712;2024-01-30T07:46:53;44.63;;;21.67;;
55290;SDS011;41155;39.768;2.712;2024-01-30T07:49:20;51.55;;;20.83;;
55290;SDS011;41155;39.768;2.712;2024-01-30T07:51:45;44.25;;;23.08;;
55290;SDS011;41155;39.768;2.712;2024-01-30T07:54:14;35.42;;;21.88;;
55290;SDS011;41155;39.768;2.712;2024-01-30T07:56:40;41.35;;;22.48;;
55290;SDS011;41155;39.768;2.712;2024-01-30T07:59:09;66.13;;;22.55;;
55290;SDS011;41155;39.768;2.712;2024-01-30T08:01:35;43.80;;;21.05;;
55290;SDS011;41155;39.768;2.712;2024-01-30T08:04:00;36.15;;;21.88;;
55290;SDS011;41155;39.768;2.712;2024-01-30T08:06:26;44.28;;;22.05;;
55290;SDS011;41155;39.768;2.712;2024-01-30T08:08:51;42.38;;;23.52;;
55290;SDS011;41155;39.768;2.712;2024-01-30T08:11:19;34.72;;;21.17;;
55290;SDS011;41155;39.768;2.712;2024-01-30T08:13:50;43.15;;;23.75;;
55290;SDS011;41155;39.768;2.712;2024-01-30T08:16:18;44.47;;;24.35;;
55290;SDS011;41155;39.768;2.712;2024-01-30T08:18:44;53.03;;;22.17;;
55290;SDS011;41155;39.768;2.712;2024-01-30T08:21:10;33.63;;;21.63;;
55290;SDS011;41155;39.768;2.712;2024-01-30T08:23:35;51.70;;;22.83;;
55290;SDS011;41155;39.768;2.712;2024-01-30T08:26:01;46.00;;;25.85;;
55290;SDS011;41155;39.768;2.712;2024-01-30T08:28:27;60.83;;;23.52;;
55290;SDS011;41155;39.768;2.712;2024-01-30T08:30:53;61.90;;;25.63;;
55290;SDS011;41155;39.768;2.712;2024-01-30T08:33:21;48.63;;;25.45;;
55290;SDS011;41155;39.768;2.712;2024-01-30T08:35:47;54.88;;;27.05;;
55290;SDS011;41155;39.768;2.712;2024-01-30T08:38:12;54.20;;;25.80;;
55290;SDS011;41155;39.768;2.712;2024-01-30T08:40:38;76.43;;;27.10;;
55290;SDS011;41155;39.768;2.712;2024-01-30T08:43:03;59.67;;;28.00;;
55290;SDS011;41155;39.768;2.712;2024-01-30T08:45:29;73.13;;;26.67;;
55290;SDS011;41155;39.768;2.712;2024-01-30T08:47:55;74.60;;;29.48;;
55290;SDS011;41155;39.768;2.712;2024-01-30T08:50:21;51.17;;;25.70;;
55290;SDS011;41155;39.768;2.712;2024-01-30T08:52:47;47.30;;;26.33;;
55290;SDS011;41155;39.768;2.712;2024-01-30T08:55:12;64.55;;;29.52;;
55290;SDS011;41155;39.768;2.712;2024-01-30T08:57:38;54.15;;;27.52;;
55290;SDS011;41155;39.768;2.712;2024-01-30T09:00:04;60.28;;;29.42;;
55290;SDS011;41155;39.768;2.712;2024-01-30T09:02:32;51.95;;;26.98;;
55290;SDS011;41155;39.768;2.712;2024-01-30T09:04:57;46.33;;;27.25;;
55290;SDS011;41155;39.768;2.712;2024-01-30T09:07:23;40.78;;;24.83;;
55290;SDS011;41155;39.768;2.712;2024-01-30T09:09:49;46.85;;;26.00;;
55290;SDS011;41155;39.768;2.712;2024-01-30T09:12:14;42.65;;;24.20;;
55290;SDS011;41155;39.768;2.712;2024-01-30T09:14:40;42.65;;;22.98;;
55290;SDS011;41155;39.768;2.712;2024-01-30T09:17:06;50.55;;;23.40;;
55290;SDS011;41155;39.768;2.712;2024-01-30T09:19:32;48.30;;;26.85;;
55290;SDS011;41155;39.768;2.712;2024-01-30T09:21:58;45.92;;;31.10;;
55290;SDS011;41155;39.768;2.712;2024-01-30T09:24:23;48.83;;;31.55;;
55290;SDS011;41155;39.768;2.712;2024-01-30T09:26:49;52.45;;;28.25;;
55290;SDS011;41155;39.768;2.712;2024-01-30T09:29:14;52.80;;;28.40;;
55290;SDS011;41155;39.768;2.712;2024-01-30T09:31:42;50.35;;;25.88;;
55290;SDS011;41155;39.768;2.712;2024-01-30T09:34:11;50.42;;;27.10;;
55290;SDS011;41155;39.768;2.712;2024-01-30T09:36:37;60.58;;;31.77;;
55290;SDS011;41155;39.768;2.712;2024-01-30T09:39:02;50.88;;;31.80;;
55290;SDS011;41155;39.768;2.712;2024-01-30T09:41:29;68.63;;;30.55;;
55290;SDS011;41155;39.768;2.712;2024-01-30T09:43:58;73.53;;;28.60;;
55290;SDS011;41155;39.768;2.712;2024-01-30T09:46:26;71.53;;;30.05;;
55290;SDS011;41155;39.768;2.712;2024-01-30T09:48:53;53.92;;;30.73;;
55290;SDS011;41155;39.768;2.712;2024-01-30T09:51:20;59.35;;;29.75;;
55290;SDS011;41155;39.768;2.712;2024-01-30T09:53:47;48.05;;;32.00;;
55290;SDS011;41155;39.768;2.712;2024-01-30T09:56:13;30.92;;;18.08;;
55290;SDS011;41155;39.768;2.712;2024-01-30T09:58:39;23.90;;;15.05;;
55290;SDS011;41155;39.768;2.712;2024-01-30T10:01:05;29.52;;;12.50;;
55290;SDS011;41155;39.768;2.712;2024-01-30T10:03:31;36.88;;;19.83;;
55290;SDS011;41155;39.768;2.712;2024-01-30T10:05:56;30.42;;;16.77;;
55290;SDS011;41155;39.768;2.712;2024-01-30T10:08:22;30.58;;;13.15;;
55290;SDS011;41155;39.768;2.712;2024-01-30T10:10:48;33.95;;;17.88;;
55290;SDS011;41155;39.768;2.712;2024-01-30T10:13:15;39.08;;;19.30;;
55290;SDS011;41155;39.768;2.712;2024-01-30T10:15:44;40.17;;;16.73;;
55290;SDS011;41155;39.768;2.712;2024-01-30T10:18:10;32.97;;;16.42;;
55290;SDS011;41155;39.768;2.712;2024-01-30T10:20:36;32.65;;;15.75;;
55290;SDS011;41155;39.768;2.712;2024-01-30T10:23:02;43.53;;;21.00;;
55290;SDS011;41155;39.768;2.712;2024-01-30T10:25:28;42.88;;;22.55;;
55290;SDS011;41155;39.768;2.712;2024-01-30T10:27:55;37.38;;;20.25;;
55290;SDS011;41155;39.768;2.712;2024-01-30T10:30:21;30.23;;;14.90;;
55290;SDS011;41155;39.768;2.712;2024-01-30T10:32:47;34.95;;;15.43;;
55290;SDS011;41155;39.768;2.712;2024-01-30T10:35:13;31.05;;;16.02;;
55290;SDS011;41155;39.768;2.712;2024-01-30T10:37:39;32.67;;;16.25;;
55290;SDS011;41155;39.768;2.712;2024-01-30T10:40:05;54.72;;;20.02;;
55290;SDS011;41155;39.768;2.712;2024-01-30T10:42:33;60.88;;;24.63;;
55290;SDS011;41155;39.768;2.712;2024-01-30T10:47:40;39.15;;;17.13;;
55290;SDS011;41155;39.768;2.712;2024-01-30T10:50:08;48.85;;;19.88;;
55290;SDS011;41155;39.768;2.712;2024-01-30T10:52:35;47.45;;;20.73;;
55290;SDS011;41155;39.768;2.712;2024-01-30T10:55:01;38.00;;;20.55;;
55290;SDS011;41155;39.768;2.712;2024-01-30T10:57:31;38.33;;;17.73;;
55290;SDS011;41155;39.768;2.712;2024-01-30T10:59:59;47.22;;;17.50;;
55290;SDS011;41155;39.768;2.712;2024-01-30T11:02:26;35.63;;;17.10;;
55290;SDS011;41155;39.768;2.712;2024-01-30T11:04:59;42.72;;;16.55;;
55290;SDS011;41155;39.768;2.712;2024-01-30T11:07:26;34.63;;;13.60;;
55290;SDS011;41155;39.768;2.712;2024-01-30T11:10:11;33.03;;;11.43;;
55290;SDS011;41155;39.768;2.712;2024-01-30T11:12:40;31.70;;;10.60;;
55290;SDS011;41155;39.768;2.712;2024-01-30T11:15:16;40.20;;;10.50;;
55290;SDS011;41155;39.768;2.712;2024-01-30T11:20:20;32.35;;;8.98;;
55290;SDS011;41155;39.768;2.712;2024-01-30T11:22:46;29.45;;;9.38;;
55290;SDS011;41155;39.768;2.712;2024-01-30T11:25:16;42.03;;;10.50;;
55290;SDS011;41155;39.768;2.712;2024-01-30T11:27:43;37.13;;;10.18;;
55290;SDS011;41155;39.768;2.712;2024-01-30T11:30:09;37.08;;;10.15;;
55290;SDS011;41155;39.768;2.712;2024-01-30T11:32:36;29.90;;;9.75;;
55290;SDS011;41155;39.768;2.712;2024-01-30T11:35:05;39.65;;;11.57;;
55290;SDS011;41155;39.768;2.712;2024-01-30T11:37:36;51.22;;;10.18;;
55290;SDS011;41155;39.768;2.712;2024-01-30T11:40:05;32.72;;;9.80;;
55290;SDS011;41155;39.768;2.712;2024-01-30T11:42:32;41.13;;;11.60;;
55290;SDS011;41155;39.768;2.712;2024-01-30T11:44:59;32.50;;;9.75;;
55290;SDS011;41155;39.768;2.712;2024-01-30T11:47:27;38.85;;;10.13;;
55290;SDS011;41155;39.768;2.712;2024-01-30T11:49:53;24.70;;;8.13;;
55290;SDS011;41155;39.768;2.712;2024-01-30T11:52:18;31.30;;;9.48;;
55290;SDS011;41155;39.768;2.712;2024-01-30T11:54:44;35.67;;;10.13;;
55290;SDS011;41155;39.768;2.712;2024-01-30T11:57:09;38.75;;;10.23;;
55290;SDS011;41155;39.768;2.712;2024-01-30T11:59:35;37.15;;;9.30;;
55290;SDS011;41155;39.768;2.712;2024-01-30T12:02:00;30.13;;;9.07;;
55290;SDS011;41155;39.768;2.712;2024-01-30T12:04:30;31.10;;;10.73;;
55290;SDS011;41155;39.768;2.712;2024-01-30T12:06:55;32.92;;;11.10;;
55290;SDS011;41155;39.768;2.712;2024-01-30T12:09:21;31.40;;;10.18;;
55290;SDS011;41155;39.768;2.712;2024-01-30T12:11:47;34.45;;;9.73;;
55290;SDS011;41155;39.768;2.712;2024-01-30T12:14:16;27.15;;;10.52;;
55290;SDS011;41155;39.768;2.712;2024-01-30T12:16:42;36.92;;;10.25;;
55290;SDS011;41155;39.768;2.712;2024-01-30T12:19:08;23.85;;;9.70;;
55290;SDS011;41155;39.768;2.712;2024-01-30T12:21:34;36.42;;;9.55;;
55290;SDS011;41155;39.768;2.712;2024-01-30T12:24:00;37.45;;;9.73;;
55290;SDS011;41155;39.768;2.712;2024-01-30T12:26:25;32.95;;;9.70;;
55290;SDS011;41155;39.768;2.712;2024-01-30T12:28:54;27.10;;;8.95;;
55290;SDS011;41155;39.768;2.712;2024-01-30T12:31:27;29.75;;;8.90;;
55290;SDS011;41155;39.768;2.712;2024-01-30T12:33:53;30.85;;;9.68;;
55290;SDS011;41155;39.768;2.712;2024-01-30T12:36:21;29.98;;;10.57;;
55290;SDS011;41155;39.768;2.712;2024-01-30T12:38:47;34.03;;;10.50;;
55290;SDS011;41155;39.768;2.712;2024-01-30T12:41:13;35.53;;;11.88;;
55290;SDS011;41155;39.768;2.712;2024-01-30T12:43:39;42.13;;;13.13;;
55290;SDS011;41155;39.768;2.712;2024-01-30T12:46:05;31.35;;;11.27;;
55290;SDS011;41155;39.768;2.712;2024-01-30T12:48:30;35.38;;;9.43;;
55290;SDS011;41155;39.768;2.712;2024-01-30T12:50:56;30.33;;;9.18;;
55290;SDS011;41155;39.768;2.712;2024-01-30T12:53:22;43.05;;;9.65;;
55290;SDS011;41155;39.768;2.712;2024-01-30T12:55:48;22.25;;;8.70;;
55290;SDS011;41155;39.768;2.712;2024-01-30T12:58:15;30.20;;;9.32;;
55290;SDS011;41155;39.768;2.712;2024-01-30T13:00:41;29.05;;;9.30;;
55290;SDS011;41155;39.768;2.712;2024-01-30T13:03:10;33.50;;;9.70;;
55290;SDS011;41155;39.768;2.712;2024-01-30T13:05:35;26.92;;;9.65;;
55290;SDS011;41155;39.768;2.712;2024-01-30T13:08:01;32.38;;;9.07;;
55290;SDS011;41155;39.768;2.712;2024-01-30T13:10:26;35.10;;;8.88;;
55290;SDS011;41155;39.768;2.712;2024-01-30T13:12:52;34.60;;;10.23;;
55290;SDS011;41155;39.768;2.712;2024-01-30T13:15:18;44.95;;;10.35;;
55290;SDS011;41155;39.768;2.712;2024-01-30T13:17:43;41.30;;;10.32;;
55290;SDS011;41155;39.768;2.712;2024-01-30T13:20:11;23.58;;;9.75;;
55290;SDS011;41155;39.768;2.712;2024-01-30T13:22:39;33.13;;;10.23;;
55290;SDS011;41155;39.768;2.712;2024-01-30T13:25:05;34.00;;;11.00;;
55290;SDS011;41155;39.768;2.712;2024-01-30T13:27:32;44.30;;;10.18;;
55290;SDS011;41155;39.768;2.712;2024-01-30T13:29:57;31.75;;;11.63;;
55290;SDS011;41155;39.768;2.712;2024-01-30T13:32:23;29.98;;;11.35;;
55290;SDS011;41155;39.768;2.712;2024-01-30T13:34:48;38.83;;;11.20;;
55290;SDS011;41155;39.768;2.712;2024-01-30T13:37:14;30.08;;;10.75;;
55290;SDS011;41155;39.768;2.712;2024-01-30T13:39:39;39.92;;;11.70;;
55290;SDS011;41155;39.768;2.712;2024-01-30T13:42:04;50.50;;;13.50;;
55290;SDS011;41155;39.768;2.712;2024-01-30T13:44:30;29.00;;;10.38;;
55290;SDS011;41155;39.768;2.712;2024-01-30T13:46:55;36.95;;;9.88;;
55290;SDS011;41155;39.768;2.712;2024-01-30T13:49:21;32.08;;;10.25;;
55290;SDS011;41155;39.768;2.712;2024-01-30T13:51:47;34.33;;;12.05;;
55290;SDS011;41155;39.768;2.712;2024-01-30T13:54:12;46.38;;;12.27;;
55290;SDS011;41155;39.768;2.712;2024-01-30T13:56:38;28.83;;;11.00;;
55290;SDS011;41155;39.768;2.712;2024-01-30T13:59:03;38.28;;;11.88;;
55290;SDS011;41155;39.768;2.712;2024-01-30T14:01:30;33.63;;;11.70;;
55290;SDS011;41155;39.768;2.712;2024-01-30T14:03:57;31.42;;;10.93;;
55290;SDS011;41155;39.768;2.712;2024-01-30T14:06:23;34.22;;;10.57;;
55290;SDS011;41155;39.768;2.712;2024-01-30T14:08:48;36.42;;;10.60;;
55290;SDS011;41155;39.768;2.712;2024-01-30T14:11:14;42.88;;;11.57;;
55290;SDS011;41155;39.768;2.712;2024-01-30T14:13:39;33.97;;;12.80;;
55290;SDS011;41155;39.768;2.712;2024-01-30T14:16:05;37.08;;;12.35;;
55290;SDS011;41155;39.768;2.712;2024-01-30T14:18:30;24.63;;;11.95;;
55290;SDS011;41155;39.768;2.712;2024-01-30T14:20:56;32.20;;;14.55;;
55290;SDS011;41155;39.768;2.712;2024-01-30T14:23:21;39.55;;;14.45;;